createdAt,value
2022-10-10T00:01:14.913Z,6.50
2022-10-10T00:03:42.591Z,6.50
2022-10-10T00:06:09.683Z,6.50
2022-10-10T00:08:36.602Z,6.40
2022-10-10T00:11:04.193Z,6.50
2022-10-10T00:13:31.131Z,6.40
2022-10-10T00:15:58.217Z,6.40
2022-10-10T00:18:25.452Z,6.40
2022-10-10T00:20:53.291Z,6.40
2022-10-10T00:23:20.589Z,6.40
2022-10-10T00:25:47.799Z,6.40
2022-10-10T00:28:14.598Z,6.40
2022-10-10T00:30:41.771Z,6.40
2022-10-10T00:33:08.654Z,6.40
2022-10-10T00:35:35.334Z,6.40
2022-10-10T00:38:02.008Z,6.40
2022-10-10T00:40:28.817Z,6.40
2022-10-10T00:42:55.657Z,6.40
2022-10-10T00:45:28.493Z,6.40
2022-10-10T00:48:13.076Z,6.30
2022-10-10T00:50:51.007Z,6.30
2022-10-10T00:53:20.680Z,6.30
2022-10-10T00:55:47.743Z,6.30
2022-10-10T00:58:15.780Z,6.30
2022-10-10T01:00:42.515Z,6.40
2022-10-10T01:03:09.617Z,6.40
2022-10-10T01:05:36.930Z,6.40
2022-10-10T01:08:05.984Z,6.40
2022-10-10T01:10:44.744Z,6.40
2022-10-10T01:13:39.324Z,6.40
2022-10-10T01:16:32.894Z,6.40
2022-10-10T01:19:14.317Z,6.40
2022-10-10T01:22:22.157Z,6.40
2022-10-10T01:25:05.315Z,6.40
2022-10-10T01:27:42.222Z,6.40
2022-10-10T01:30:10.148Z,6.30
2022-10-10T01:32:42.270Z,6.30
2022-10-10T01:35:28.408Z,6.30
2022-10-10T01:38:02.793Z,6.30
2022-10-10T01:40:53.470Z,6.20
2022-10-10T01:43:20.339Z,6.20
2022-10-10T01:45:49.370Z,6.20
2022-10-10T01:48:20.003Z,6.20
2022-10-10T01:51:37.528Z,6.10
2022-10-10T01:54:11.517Z,6.20
2022-10-10T01:56:51.549Z,6.10
2022-10-10T01:59:52.325Z,6.10
2022-10-10T02:02:25.321Z,6.10
2022-10-10T02:04:51.879Z,6.10
2022-10-10T02:07:26.746Z,6.10
2022-10-10T02:09:55.026Z,6.10
2022-10-10T02:12:23.819Z,6.10
2022-10-10T02:14:54.303Z,6.10
2022-10-10T02:17:22.065Z,6.10
2022-10-10T02:19:54.508Z,6.10
2022-10-10T02:22:23.276Z,6.10
2022-10-10T02:24:52.197Z,6.10
2022-10-10T02:27:29.934Z,6.10
2022-10-10T02:29:59.255Z,6.10
2022-10-10T02:32:31.536Z,6.10
2022-10-10T02:35:04.583Z,6.10
2022-10-10T02:37:31.854Z,6.10
2022-10-10T02:40:02.449Z,6.10
2022-10-10T02:42:29.996Z,6.10
2022-10-10T02:44:57.494Z,6.10
2022-10-10T02:47:24.249Z,6.20
2022-10-10T02:49:51.144Z,6.20
2022-10-10T02:52:18.069Z,6.20
2022-10-10T02:54:44.748Z,6.20
2022-10-10T02:57:12.222Z,6.20
2022-10-10T02:59:38.845Z,6.20
2022-10-10T03:02:06.315Z,6.20
2022-10-10T03:04:32.922Z,6.10
2022-10-10T03:06:59.677Z,6.10
2022-10-10T03:09:26.281Z,6.20
2022-10-10T03:11:53.155Z,6.10
2022-10-10T03:14:19.731Z,6.10
2022-10-10T03:16:46.339Z,6.10
2022-10-10T03:19:12.954Z,6.10
2022-10-10T03:21:39.522Z,6.20
2022-10-10T03:24:06.298Z,6.20
2022-10-10T03:26:32.986Z,6.20
2022-10-10T03:29:00.989Z,6.20
2022-10-10T03:31:27.709Z,6.20
2022-10-10T03:33:54.298Z,6.20
2022-10-10T03:36:21.090Z,6.20
2022-10-10T03:38:47.918Z,6.20
2022-10-10T03:41:14.859Z,6.20
2022-10-10T03:43:41.450Z,6.20
2022-10-10T03:46:11.345Z,6.30
2022-10-10T03:48:40.437Z,6.20
2022-10-10T03:51:07.104Z,6.20
2022-10-10T03:53:33.720Z,6.40
2022-10-10T03:56:00.267Z,6.40
2022-10-10T03:58:27.079Z,6.40
2022-10-10T04:00:59.034Z,6.50
2022-10-10T04:03:26.714Z,6.50
2022-10-10T04:05:53.631Z,6.50
2022-10-10T04:08:20.893Z,6.50
2022-10-10T04:10:52.355Z,6.50
2022-10-10T04:13:19.397Z,6.50
2022-10-10T04:15:45.969Z,6.50
2022-10-10T04:18:12.757Z,6.50
2022-10-10T04:20:39.425Z,6.40
2022-10-10T04:23:06.033Z,6.40
2022-10-10T04:25:32.966Z,6.50
2022-10-10T04:28:01.211Z,6.50
2022-10-10T04:30:32.828Z,6.50
2022-10-10T04:33:00.179Z,6.60
2022-10-10T04:35:26.891Z,6.70
2022-10-10T04:37:53.723Z,6.70
2022-10-10T04:40:25.531Z,6.60
2022-10-10T04:42:53.950Z,6.70
2022-10-10T04:45:20.652Z,6.70
2022-10-10T04:47:47.268Z,6.60
2022-10-10T04:50:14.066Z,6.60
2022-10-10T04:52:40.763Z,6.60
2022-10-10T04:55:07.719Z,6.60
2022-10-10T04:57:34.566Z,6.50
2022-10-10T05:00:01.166Z,6.50
2022-10-10T05:02:27.771Z,6.50
2022-10-10T05:04:54.665Z,6.50
2022-10-10T05:07:21.333Z,6.50
2022-10-10T05:09:47.973Z,6.40
2022-10-10T05:12:14.566Z,6.40
2022-10-10T05:14:44.670Z,6.40
2022-10-10T05:17:15.391Z,6.40
2022-10-10T05:19:42.492Z,6.40
2022-10-10T05:22:09.195Z,6.50
2022-10-10T05:24:35.796Z,6.50
2022-10-10T05:27:02.414Z,6.50
2022-10-10T05:29:29.053Z,6.50
2022-10-10T05:31:55.654Z,6.50
2022-10-10T05:34:22.592Z,6.50
2022-10-10T05:36:49.321Z,6.60
2022-10-10T05:39:16.029Z,6.60
2022-10-10T05:41:42.770Z,6.60
2022-10-10T05:44:10.077Z,6.60
2022-10-10T05:46:36.703Z,6.60
2022-10-10T05:49:03.483Z,6.70
2022-10-10T05:51:30.115Z,6.70
2022-10-10T05:53:57.384Z,6.70
2022-10-10T05:56:24.161Z,6.70
2022-10-10T05:58:51.523Z,6.80
2022-10-10T06:01:18.476Z,6.80
2022-10-10T06:03:45.127Z,6.80
2022-10-10T06:06:11.683Z,6.90
2022-10-10T06:08:38.402Z,6.90
2022-10-10T06:11:11.122Z,6.90
2022-10-10T06:13:38.724Z,6.80
2022-10-10T06:16:05.462Z,6.90
2022-10-10T06:18:32.074Z,7.00
2022-10-10T06:21:02.887Z,7.00
2022-10-10T06:23:29.704Z,7.20
2022-10-10T06:25:56.300Z,7.40
2022-10-10T06:28:23.027Z,7.50
2022-10-10T06:30:51.158Z,7.60
2022-10-10T06:33:19.206Z,7.70
2022-10-10T06:35:48.074Z,7.90
2022-10-10T06:38:16.131Z,8.00
2022-10-10T06:40:43.788Z,8.10
2022-10-10T06:43:12.556Z,8.20
2022-10-10T06:45:44.180Z,8.30
2022-10-10T06:48:13.050Z,8.40
2022-10-10T06:50:39.676Z,8.60
2022-10-10T06:53:06.917Z,8.60
2022-10-10T06:55:33.694Z,8.80
2022-10-10T06:58:00.567Z,8.80
2022-10-10T07:00:27.220Z,9.00
2022-10-10T07:02:54.143Z,9.00
2022-10-10T07:05:21.091Z,9.20
2022-10-10T07:07:47.944Z,9.20
2022-10-10T07:10:15.806Z,9.30
2022-10-10T07:12:45.040Z,9.40
2022-10-10T07:15:12.246Z,9.50
2022-10-10T07:17:38.954Z,9.60
2022-10-10T07:20:06.649Z,9.60
2022-10-10T07:22:33.555Z,9.70
2022-10-10T07:25:00.208Z,9.80
2022-10-10T07:27:26.873Z,9.80
2022-10-10T07:29:53.491Z,9.90
2022-10-10T07:32:20.549Z,10.00
2022-10-10T07:34:47.529Z,10.00
2022-10-10T07:37:14.135Z,10.10
2022-10-10T07:39:40.814Z,10.20
2022-10-10T07:42:07.423Z,10.30
2022-10-10T07:44:34.808Z,10.40
2022-10-10T07:47:01.843Z,10.50
2022-10-10T07:49:28.764Z,10.60
2022-10-10T07:51:58.877Z,10.60
2022-10-10T07:54:28.530Z,10.60
2022-10-10T07:56:55.280Z,10.70
2022-10-10T07:59:22.732Z,10.80
2022-10-10T08:01:50.072Z,10.80
2022-10-10T08:04:17.365Z,11.00
2022-10-10T08:06:44.465Z,11.30
2022-10-10T08:09:11.284Z,11.40
2022-10-10T08:11:37.926Z,11.50
2022-10-10T08:14:04.575Z,11.60
2022-10-10T08:16:31.530Z,11.80
2022-10-10T08:18:58.128Z,11.80
2022-10-10T08:21:24.831Z,11.90
2022-10-10T08:23:51.422Z,11.90
2022-10-10T08:26:20.216Z,11.90
2022-10-10T08:28:48.435Z,11.90
2022-10-10T08:31:17.609Z,11.90
2022-10-10T08:33:45.967Z,11.80
2022-10-10T08:36:16.396Z,11.90
2022-10-10T08:38:43.435Z,11.90
2022-10-10T08:41:29.248Z,12.00
2022-10-10T08:44:00.996Z,12.10
2022-10-10T08:46:33.597Z,12.30
2022-10-10T08:49:13.713Z,12.50
2022-10-10T08:51:42.540Z,12.70
2022-10-10T08:54:11.273Z,12.90
2022-10-10T08:56:39.421Z,13.20
2022-10-10T08:59:20.310Z,13.50
2022-10-10T09:02:17.859Z,13.80
2022-10-10T09:04:36.411Z,14.00
2022-10-10T09:07:24.815Z,14.30
2022-10-10T09:09:58.006Z,14.60
2022-10-10T09:12:32.620Z,14.80
2022-10-10T09:15:21.559Z,14.90
2022-10-10T09:18:12.780Z,15.10
2022-10-10T09:21:07.985Z,15.00
2022-10-10T09:23:43.609Z,15.00
2022-10-10T09:26:14.243Z,15.20
2022-10-10T09:28:55.547Z,15.30
2022-10-10T09:31:51.355Z,15.40
2022-10-10T09:34:23.945Z,15.50
2022-10-10T09:36:51.040Z,15.50
2022-10-10T09:40:01.878Z,15.50
2022-10-10T09:42:35.819Z,15.50
2022-10-10T09:45:03.778Z,15.50
2022-10-10T09:47:30.458Z,15.50
2022-10-10T09:49:58.867Z,15.60
2022-10-10T09:52:31.656Z,15.70
2022-10-10T09:55:05.506Z,16.00
2022-10-10T09:57:38.182Z,16.30
2022-10-10T10:00:27.797Z,16.50
2022-10-10T10:03:24.021Z,16.70
2022-10-10T10:06:01.672Z,16.90
2022-10-10T10:08:31.575Z,17.20
2022-10-10T10:10:59.792Z,17.50
2022-10-10T10:13:36.039Z,17.60
2022-10-10T10:16:07.068Z,17.70
2022-10-10T10:18:42.621Z,17.80
2022-10-10T10:21:13.700Z,17.80
2022-10-10T10:23:52.377Z,17.70
2022-10-10T10:26:43.716Z,17.80
2022-10-10T10:29:28.880Z,17.70
2022-10-10T10:32:22.214Z,17.80
2022-10-10T10:35:03.867Z,18.00
2022-10-10T10:38:08.643Z,18.40
2022-10-10T10:41:03.942Z,18.70
2022-10-10T10:43:49.236Z,18.70
2022-10-10T10:46:28.019Z,18.60
2022-10-10T10:48:57.312Z,18.70
2022-10-10T10:51:40.717Z,18.90
2022-10-10T10:54:28.932Z,19.00
2022-10-10T10:57:32.869Z,19.00
2022-10-10T11:00:26.322Z,19.10
2022-10-10T11:05:23.088Z,19.20
2022-10-10T11:06:17.322Z,19.10
2022-10-10T11:08:57.447Z,18.90
2022-10-10T11:11:39.011Z,19.00
2022-10-10T11:14:38.610Z,19.10
2022-10-10T11:17:20.111Z,19.10
2022-10-10T11:20:24.763Z,19.00
2022-10-10T11:23:09.242Z,18.90
2022-10-10T11:25:51.698Z,18.80
2022-10-10T11:28:21.270Z,18.80
2022-10-10T11:31:03.109Z,18.90
2022-10-10T11:33:36.431Z,19.10
2022-10-10T11:36:12.375Z,19.00
2022-10-10T11:38:44.912Z,19.00
2022-10-10T11:41:24.254Z,19.20
2022-10-10T11:44:10.164Z,19.30
2022-10-10T11:46:45.697Z,19.40
2022-10-10T11:49:22.623Z,19.60
2022-10-10T11:52:15.135Z,19.60
2022-10-10T11:54:54.043Z,19.90
2022-10-10T11:57:29.803Z,19.90
2022-10-10T12:00:04.510Z,19.80
2022-10-10T12:02:36.089Z,19.90
2022-10-10T12:05:06.111Z,20.00
2022-10-10T12:07:40.184Z,19.90
2022-10-10T12:10:11.697Z,20.00
2022-10-10T12:12:45.225Z,20.00
2022-10-10T12:15:35.187Z,20.00
2022-10-10T12:18:04.824Z,19.90
2022-10-10T12:20:34.815Z,19.90
2022-10-10T12:23:13.507Z,19.80
2022-10-10T12:25:45.443Z,19.70
2022-10-10T12:28:14.922Z,19.80
2022-10-10T12:31:07.529Z,20.10
2022-10-10T12:33:34.095Z,20.20
2022-10-10T12:36:19.158Z,20.30
2022-10-10T12:39:08.039Z,20.20
2022-10-10T12:41:55.251Z,20.20
2022-10-10T12:44:34.305Z,20.40
2022-10-10T12:47:16.078Z,20.50
2022-10-10T12:49:59.593Z,20.60
2022-10-10T12:52:52.631Z,20.50
2022-10-10T12:55:32.397Z,20.70
2022-10-10T12:58:03.172Z,20.60
2022-10-10T13:00:41.560Z,20.80
2022-10-10T13:03:24.461Z,20.90
2022-10-10T13:05:52.216Z,20.80
2022-10-10T13:08:24.167Z,20.90
2022-10-10T13:11:12.476Z,20.80
2022-10-10T13:13:40.740Z,20.70
2022-10-10T13:16:13.103Z,20.70
2022-10-10T13:18:49.885Z,20.70
2022-10-10T13:21:22.138Z,20.70
2022-10-10T13:26:43.965Z,20.70
2022-10-10T13:29:35.394Z,20.70
2022-10-10T13:32:06.067Z,20.50
2022-10-10T13:34:40.110Z,20.40
2022-10-10T13:37:07.157Z,20.50
2022-10-10T13:39:37.284Z,20.40
2022-10-10T13:42:05.975Z,20.30
2022-10-10T13:44:47.655Z,20.30
2022-10-10T13:47:42.049Z,20.20
2022-10-10T13:50:43.466Z,20.20
2022-10-10T13:53:31.711Z,20.40
2022-10-10T13:56:08.669Z,20.50
2022-10-10T13:58:41.701Z,20.50
2022-10-10T14:01:32.483Z,20.40
2022-10-10T14:04:24.658Z,20.50
2022-10-10T14:06:57.160Z,20.50
2022-10-10T14:09:41.214Z,20.50
2022-10-10T14:12:16.981Z,20.40
2022-10-10T14:14:49.348Z,20.20
2022-10-10T14:17:17.092Z,20.10
2022-10-10T14:19:45.703Z,19.90
2022-10-10T14:22:12.661Z,19.80
2022-10-10T14:24:39.337Z,19.80
2022-10-10T14:27:26.350Z,19.80
2022-10-10T14:29:54.675Z,19.60
2022-10-10T14:32:22.289Z,19.50
2022-10-10T14:34:49.069Z,19.40
2022-10-10T14:37:23.316Z,19.30
2022-10-10T14:39:50.073Z,19.30
2022-10-10T14:42:19.091Z,19.20
2022-10-10T14:44:45.926Z,19.10
2022-10-10T14:47:22.191Z,19.10
2022-10-10T14:49:49.430Z,19.00
2022-10-10T14:52:16.530Z,18.80
2022-10-10T14:54:43.253Z,18.70
2022-10-10T14:57:13.150Z,18.60
2022-10-10T14:59:47.196Z,18.50
2022-10-10T15:02:20.759Z,18.60
2022-10-10T15:04:48.142Z,18.40
2022-10-10T15:07:16.002Z,18.30
2022-10-10T15:10:18.895Z,18.40
2022-10-10T15:12:36.846Z,18.30
2022-10-10T15:15:04.127Z,18.20
2022-10-10T15:17:33.726Z,18.20
2022-10-10T15:20:01.769Z,18.00
2022-10-10T15:22:30.306Z,17.90
2022-10-10T15:24:57.132Z,17.80
2022-10-10T15:27:24.038Z,17.60
2022-10-10T15:29:50.752Z,17.60
2022-10-10T15:32:17.422Z,17.40
2022-10-10T15:34:44.074Z,17.20
2022-10-10T15:37:10.849Z,17.10
2022-10-10T15:39:37.843Z,16.90
2022-10-10T15:42:12.690Z,16.80
2022-10-10T15:44:51.645Z,16.80
2022-10-10T15:47:19.857Z,16.70
2022-10-10T15:49:46.826Z,16.70
2022-10-10T15:52:13.624Z,16.70
2022-10-10T15:54:40.750Z,16.70
2022-10-10T15:57:07.651Z,16.60
2022-10-10T15:59:36.827Z,16.70
2022-10-10T16:02:05.919Z,16.60
2022-10-10T16:04:32.575Z,16.60
2022-10-10T16:07:24.075Z,16.60
2022-10-10T16:09:46.118Z,16.60
2022-10-10T16:12:12.772Z,16.40
2022-10-10T16:14:39.433Z,16.40
2022-10-10T16:17:06.031Z,16.30
2022-10-10T16:19:32.648Z,16.20
2022-10-10T16:21:59.479Z,16.10
2022-10-10T16:24:26.206Z,16.10
2022-10-10T16:26:52.828Z,16.00
2022-10-10T16:29:20.619Z,16.00
2022-10-10T16:31:47.630Z,15.80
2022-10-10T16:34:15.892Z,15.50
2022-10-10T16:36:42.594Z,15.40
2022-10-10T16:39:09.328Z,15.20
2022-10-10T16:41:47.934Z,15.00
2022-10-10T16:44:16.000Z,15.00
2022-10-10T16:46:42.787Z,14.80
2022-10-10T16:49:09.831Z,14.60
2022-10-10T16:51:37.317Z,14.50
2022-10-10T16:54:05.709Z,14.40
2022-10-10T16:56:32.770Z,14.40
2022-10-10T16:58:59.630Z,14.20
2022-10-10T17:01:26.513Z,14.20
2022-10-10T17:03:53.579Z,14.10
2022-10-10T17:06:22.899Z,14.10
2022-10-10T17:08:51.556Z,14.10
2022-10-10T17:11:20.576Z,14.10
2022-10-10T17:13:48.354Z,14.00
2022-10-10T17:19:05.141Z,14.00
2022-10-10T17:21:32.036Z,13.90
2022-10-10T17:23:58.732Z,13.90
2022-10-10T17:26:27.703Z,13.90
2022-10-10T17:28:56.078Z,13.90
2022-10-10T17:31:23.380Z,13.90
2022-10-10T17:33:53.918Z,13.90
2022-10-10T17:36:23.913Z,13.90
2022-10-10T17:38:50.902Z,13.80
2022-10-10T17:41:21.570Z,13.80
2022-10-10T17:43:48.577Z,13.80
2022-10-10T17:46:35.287Z,13.80
2022-10-10T17:49:04.314Z,13.80
2022-10-10T17:51:31.160Z,13.80
2022-10-10T17:54:02.706Z,13.80
2022-10-10T17:56:29.649Z,13.80
2022-10-10T17:58:56.382Z,13.80
2022-10-10T18:01:23.344Z,13.80
2022-10-10T18:03:51.154Z,13.70
2022-10-10T18:06:21.132Z,13.70
2022-10-10T18:08:49.091Z,13.60
2022-10-10T18:11:19.031Z,13.50
2022-10-10T18:13:46.564Z,13.40
2022-10-10T18:16:16.318Z,13.30
2022-10-10T18:18:49.639Z,13.30
2022-10-10T18:21:19.149Z,13.20
2022-10-10T18:23:45.819Z,13.10
2022-10-10T18:26:15.218Z,13.00
2022-10-10T18:28:42.966Z,12.90
2022-10-10T18:31:14.279Z,12.80
2022-10-10T18:33:42.362Z,12.80
2022-10-10T18:36:10.184Z,12.70
2022-10-10T18:38:37.741Z,12.60
2022-10-10T18:41:11.093Z,12.50
2022-10-10T18:43:39.434Z,12.40
2022-10-10T18:46:08.135Z,12.30
2022-10-10T18:48:35.877Z,12.30
2022-10-10T18:51:07.228Z,12.20
2022-10-10T18:53:38.767Z,12.10
2022-10-10T18:56:06.455Z,12.00
2022-10-10T18:58:35.115Z,12.00
2022-10-10T19:01:08.658Z,11.90
2022-10-10T19:03:37.425Z,11.70
2022-10-10T19:06:06.699Z,11.60
2022-10-10T19:08:33.655Z,11.50
2022-10-10T19:11:01.345Z,11.50
2022-10-10T19:13:28.561Z,11.40
2022-10-10T19:15:55.260Z,11.30
2022-10-10T19:18:22.637Z,11.20
2022-10-10T19:20:49.641Z,11.10
2022-10-10T19:23:16.339Z,11.00
2022-10-10T19:25:44.353Z,10.90
2022-10-10T19:28:11.009Z,10.90
2022-10-10T19:30:39.511Z,10.80
2022-10-10T19:33:06.610Z,10.70
2022-10-10T19:35:48.262Z,10.60
2022-10-10T19:38:17.995Z,10.50
2022-10-10T19:40:45.834Z,10.50
2022-10-10T19:43:13.077Z,10.40
2022-10-10T19:45:44.600Z,10.30
2022-10-10T19:48:11.303Z,10.20
2022-10-10T19:50:40.102Z,10.10
2022-10-10T19:53:07.627Z,10.10
2022-10-10T19:55:34.539Z,10.00
2022-10-10T19:58:01.324Z,9.90
2022-10-10T20:00:28.290Z,9.90
2022-10-10T20:02:55.107Z,9.80
2022-10-10T20:05:21.979Z,9.80
2022-10-10T20:07:52.277Z,9.80
2022-10-10T20:10:19.938Z,9.70
2022-10-10T20:12:47.288Z,9.70
2022-10-10T20:15:14.015Z,9.60
2022-10-10T20:17:41.182Z,9.50
2022-10-10T20:20:08.290Z,9.50
2022-10-10T20:22:35.019Z,9.40
2022-10-10T20:25:02.184Z,9.40
2022-10-10T20:27:31.154Z,9.30
2022-10-10T20:29:58.926Z,9.30
2022-10-10T20:32:25.943Z,9.20
2022-10-10T20:34:52.539Z,9.20
2022-10-10T20:37:19.192Z,9.10
2022-10-10T20:39:46.875Z,9.10
2022-10-10T20:42:13.537Z,9.00
2022-10-10T20:44:40.223Z,8.90
2022-10-10T20:47:06.846Z,8.90
2022-10-10T20:49:33.713Z,8.90
2022-10-10T20:52:00.389Z,8.80
2022-10-10T20:54:27.125Z,8.80
2022-10-10T20:56:53.738Z,8.70
2022-10-10T20:59:21.307Z,8.70
2022-10-10T21:01:48.365Z,8.60
2022-10-10T21:04:15.176Z,8.60
2022-10-10T21:06:42.759Z,8.50
2022-10-10T21:09:12.168Z,8.50
2022-10-10T21:11:39.602Z,8.50
2022-10-10T21:14:06.576Z,8.40
2022-10-10T21:16:36.337Z,8.40
2022-10-10T21:19:05.192Z,8.40
2022-10-10T21:21:34.823Z,8.40
2022-10-10T21:24:02.623Z,8.40
2022-10-10T21:26:29.828Z,8.30
2022-10-10T21:28:57.186Z,8.30
2022-10-10T21:31:26.970Z,8.20
2022-10-10T21:33:54.131Z,8.10
2022-10-10T21:36:22.894Z,8.10
2022-10-10T21:38:49.484Z,8.10
2022-10-10T21:41:21.821Z,8.10
2022-10-10T21:43:52.689Z,8.00
2022-10-10T21:46:24.359Z,8.00
2022-10-10T21:48:52.345Z,7.90
2022-10-10T21:51:20.156Z,7.90
2022-10-10T21:53:47.602Z,7.80
2022-10-10T21:56:14.405Z,7.80
2022-10-10T21:58:43.097Z,7.80
2022-10-10T22:01:18.716Z,7.70
2022-10-10T22:03:47.523Z,7.70
2022-10-10T22:06:19.864Z,7.70
2022-10-10T22:08:47.656Z,7.60
2022-10-10T22:11:20.001Z,7.60
2022-10-10T22:13:47.248Z,7.60
2022-10-10T22:16:14.638Z,7.50
2022-10-10T22:18:42.001Z,7.50
2022-10-10T22:21:12.550Z,7.50
2022-10-10T22:23:39.752Z,7.40
2022-10-10T22:26:11.427Z,7.40
2022-10-10T22:28:38.641Z,7.40
2022-10-10T22:31:09.971Z,7.30
2022-10-10T22:33:36.699Z,7.30
2022-10-10T22:36:04.924Z,7.30
2022-10-10T22:38:32.427Z,7.30
2022-10-10T22:40:59.227Z,7.20
2022-10-10T22:43:27.184Z,7.20
2022-10-10T22:45:54.370Z,7.20
2022-10-10T22:48:21.225Z,7.20
2022-10-10T22:50:48.137Z,7.10
2022-10-10T22:53:14.793Z,7.10
2022-10-10T22:55:41.577Z,7.10
2022-10-10T22:58:09.013Z,7.10
2022-10-10T23:00:35.876Z,7.10
2022-10-10T23:03:02.547Z,7.00
2022-10-10T23:05:29.193Z,7.00
2022-10-10T23:07:56.163Z,7.00
2022-10-10T23:10:22.770Z,6.90
2022-10-10T23:12:49.422Z,6.90
2022-10-10T23:15:16.058Z,6.90
2022-10-10T23:17:42.749Z,6.80
2022-10-10T23:20:09.881Z,6.80
2022-10-10T23:22:36.553Z,6.80
2022-10-10T23:25:03.456Z,6.70
2022-10-10T23:27:30.163Z,6.70
2022-10-10T23:29:57.055Z,6.70
2022-10-10T23:32:26.719Z,6.70
2022-10-10T23:34:53.322Z,6.70
2022-10-10T23:37:20.138Z,6.70
2022-10-10T23:39:46.836Z,6.60
2022-10-10T23:42:13.444Z,6.60
2022-10-10T23:44:40.154Z,6.60
2022-10-10T23:47:06.829Z,6.50
2022-10-10T23:49:33.447Z,6.50
2022-10-10T23:52:00.104Z,6.40
2022-10-10T23:54:26.683Z,6.40
2022-10-10T23:56:53.354Z,6.40
2022-10-10T23:59:19.968Z,6.40
